Terminal Aerodrome Forecast
Issued by NWS

Home | Current Version | Previous Version | Text Only | Print | Product List | Glossary On
Versions: 1 2 3 4 5 6 7 8 9 10 11 12 13 14 15 16 17 18 19 20 21 22
000
FTUS45 KABQ 281400 AAA
TAFGUP
TAF AMD
KGUP 281445Z 2815/0112 22010KT 3SM -RASN BR BKN015 OVC025
      TEMPO 2815/2817 3/4SM -SN BR OVC012
     FM281900 23018G27KT 5SM -RA BKN025 OVC050
     FM010200 23010G18KT P6SM -SHRA BKN025 OVC040=

USA.gov is the U.S. government's official web portal to all federal, state and local government web resources and services.